Time;durP1;ratioP1;P1;durP2;ratioP2;P2;SDS_P1;SDS_P2;PMS_P1;PMS_P2;Temp;Humidity;BMP_temperature;BMP_pressure;BME280_temperature;BME280_humidity;BME280_pressure;Samples;Min_cycle;Max_cycle;Signal;HPM_P1;HPM_P2
2022/03/02 00:00:20;;;;;;;48.75;17.00;;;;;;;-2.23;60.76;100595.34;8437276;28;20109;-72
2022/03/02 00:04:40;;;;;;;43.75;17.40;;;;;;;-2.27;60.89;100609.94;8433449;28;20059;-72
2022/03/02 00:08:41;;;;;;;45.35;16.80;;;;;;;-2.28;60.91;100600.41;8432318;28;20052;-72
2022/03/02 00:12:43;;;;;;;47.00;17.05;;;;;;;-2.28;61.15;100592.47;8432533;28;20048;-72
2022/03/02 00:16:44;;;;;;;46.65;17.70;;;;;;;-2.31;61.25;100592.81;8433092;28;20048;-72
2022/03/02 00:20:44;;;;;;;41.97;16.73;;;;;;;-2.35;61.12;100596.03;8464469;28;20470;-72
2022/03/02 00:24:50;;;;;;;47.50;16.73;;;;;;;-2.37;61.56;100596.22;8443148;27;20126;-72
2022/03/02 00:28:51;;;;;;;47.05;17.05;;;;;;;-2.43;61.66;100599.59;8450580;27;20147;-72
2022/03/02 00:32:52;;;;;;;43.90;16.40;;;;;;;-2.47;61.73;100593.06;8431007;28;20040;-72
2022/03/02 00:36:53;;;;;;;39.63;16.20;;;;;;;-2.51;61.67;100591.81;8424178;28;20058;-72
2022/03/02 00:40:54;;;;;;;45.45;16.38;;;;;;;-2.56;62.02;100594.19;8462389;28;20051;-71
2022/03/02 00:44:56;;;;;;;46.63;17.40;;;;;;;-2.62;61.88;100584.34;8446869;27;20131;-72
2022/03/02 00:49:02;;;;;;;47.33;17.83;;;;;;;-2.69;61.96;100583.47;8442432;28;20055;-72
2022/03/02 00:53:07;;;;;;;44.50;16.33;;;;;;;-2.74;62.17;100580.56;8455486;28;20040;-71
2022/03/02 00:57:08;;;;;;;49.28;17.05;;;;;;;-2.81;62.26;100569.09;8507303;27;20043;-72
2022/03/02 01:01:09;;;;;;;42.47;15.50;;;;;;;-2.84;62.30;100575.56;8469462;27;20406;-72
2022/03/02 01:05:10;;;;;;;36.75;15.00;;;;;;;-2.86;62.42;100566.19;8495434;27;20062;-72
2022/03/02 01:09:11;;;;;;;41.22;14.25;;;;;;;-2.88;62.20;100563.75;8525510;27;20146;-71
2022/03/02 01:13:13;;;;;;;40.05;14.35;;;;;;;-2.89;62.17;100563.91;8509307;27;20043;-72
2022/03/02 01:17:13;;;;;;;42.38;14.57;;;;;;;-2.93;62.23;100554.72;8499136;27;20494;-72
2022/03/02 01:21:15;;;;;;;36.95;13.68;;;;;;;-2.96;62.47;100549.81;8449068;27;20510;-72
2022/03/02 01:25:15;;;;;;;49.20;15.30;;;;;;;-3.02;62.55;100552.19;8494069;27;20043;-72
2022/03/02 01:29:16;;;;;;;35.88;13.10;;;;;;;-3.04;62.77;100543.63;8495410;27;20047;-72
2022/03/02 01:33:17;;;;;;;40.35;14.75;;;;;;;-3.09;62.86;100546.00;8454839;27;20076;-72
2022/03/02 01:37:18;;;;;;;34.45;13.02;;;;;;;-3.12;63.11;100530.50;8439350;28;20056;-72
2022/03/02 01:41:22;;;;;;;36.08;14.00;;;;;;;-3.17;62.91;100527.59;8434743;28;20043;-72
2022/03/02 01:45:23;;;;;;;37.53;13.38;;;;;;;-3.18;63.19;100526.00;8439066;28;20510;-72
2022/03/02 01:49:24;;;;;;;37.47;13.85;;;;;;;-3.21;62.94;100515.78;8456728;27;20130;-72
2022/03/02 01:53:25;;;;;;;35.05;13.50;;;;;;;-3.22;63.20;100518.59;8444855;28;20092;-72
2022/03/02 01:57:27;;;;;;;34.75;12.82;;;;;;;-3.27;63.21;100500.66;8437717;28;20495;-72
2022/03/02 02:01:28;;;;;;;33.83;12.82;;;;;;;-3.31;63.31;100499.41;8443078;28;20506;-72
2022/03/02 02:05:30;;;;;;;37.72;14.95;;;;;;;-3.31;63.27;100490.66;8454430;28;20131;-72
2022/03/02 02:09:31;;;;;;;35.83;13.23;;;;;;;-3.33;63.51;100485.53;8439261;27;20093;-72
2022/03/02 02:13:34;;;;;;;37.85;12.70;;;;;;;-3.37;63.17;100484.28;8404660;28;20075;-72
2022/03/02 02:17:35;;;;;;;33.45;12.80;;;;;;;-3.41;63.44;100488.31;8443520;28;20055;-72
2022/03/02 02:21:36;;;;;;;30.92;11.73;;;;;;;-3.47;63.36;100478.47;8390672;28;1268105;-72
2022/03/02 02:25:38;;;;;;;37.15;12.90;;;;;;;-3.53;63.49;100468.63;8445874;28;20040;-71
2022/03/02 02:29:39;;;;;;;35.88;13.50;;;;;;;-3.58;63.91;100471.00;8453725;28;20051;-72
2022/03/02 02:33:40;;;;;;;53.10;16.23;;;;;;;-3.61;63.93;100466.09;8459108;27;20047;-72
2022/03/02 02:37:41;;;;;;;41.85;15.05;;;;;;;-3.64;63.75;100461.19;8435122;28;20058;-71
2022/03/02 02:41:42;;;;;;;42.38;15.60;;;;;;;-3.68;64.04;100459.91;8441215;28;20436;-72
2022/03/02 02:45:43;;;;;;;42.50;13.52;;;;;;;-3.71;64.27;100465.56;8447414;28;20181;-72
2022/03/02 02:49:44;;;;;;;43.90;14.82;;;;;;;-3.77;64.19;100461.03;8453645;28;20058;-72
2022/03/02 02:53:45;;;;;;;40.92;14.35;;;;;;;-3.80;64.16;100461.38;8437005;28;20414;-72
2022/03/02 02:57:47;;;;;;;35.78;13.50;;;;;;;-3.83;64.56;100458.13;8440824;28;20449;-72
2022/03/02 03:01:48;;;;;;;42.33;14.27;;;;;;;-3.88;64.48;100460.47;8451738;28;20426;-72
2022/03/02 03:05:51;;;;;;;42.47;13.77;;;;;;;-3.91;64.85;100450.28;8440689;28;20053;-71
2022/03/02 03:09:52;;;;;;;35.90;13.30;;;;;;;-3.95;65.34;100449.00;8416469;28;20488;-72
2022/03/02 03:13:53;;;;;;;39.60;13.20;;;;;;;-4.04;65.25;100450.09;8445999;28;20048;-72
2022/03/02 03:17:54;;;;;;;33.97;13.27;;;;;;;-4.10;65.60;100445.56;8444994;28;20047;-72
2022/03/02 03:21:55;;;;;;;37.63;13.02;;;;;;;-4.17;66.07;100449.06;8435710;28;20113;-72
2022/03/02 03:25:56;;;;;;;34.42;13.20;;;;;;;-4.24;66.62;100449.00;8447367;28;20106;-71
2022/03/02 03:29:57;;;;;;;33.17;13.00;;;;;;;-4.33;66.77;100434.25;8442479;28;20123;-72
2022/03/02 03:33:58;;;;;;;33.28;12.70;;;;;;;-4.42;67.02;100437.97;8450581;28;20054;-72
2022/03/02 03:37:59;;;;;;;46.85;13.30;;;;;;;-4.49;67.63;100434.38;8442690;27;20040;-72
2022/03/02 03:42:00;;;;;;;56.58;16.33;;;;;;;-4.53;67.41;100427.84;8430817;27;20067;-72
2022/03/02 03:46:01;;;;;;;78.25;18.52;;;;;;;-4.59;68.08;100428.56;8451798;27;20040;-72
2022/03/02 03:50:03;;;;;;;52.95;16.20;;;;;;;-4.63;68.32;100422.00;8466462;27;20074;-73
2022/03/02 03:54:04;;;;;;;92.53;20.67;;;;;;;-4.68;68.40;100431.28;8469989;27;20057;-71
2022/03/02 03:58:06;;;;;;;65.13;15.55;;;;;;;-4.75;68.91;100432.97;8437524;28;20159;-72
2022/03/02 04:02:07;;;;;;;74.07;17.73;;;;;;;-4.79;69.00;100431.69;8454451;27;20048;-72
2022/03/02 04:06:08;;;;;;;74.57;19.02;;;;;;;-4.85;69.24;100429.75;8415595;27;20127;-72
2022/03/02 04:10:09;;;;;;;71.88;19.25;;;;;;;-4.93;69.31;100416.66;8453683;28;20042;-72
2022/03/02 04:14:10;;;;;;;81.68;19.13;;;;;;;-5.00;69.11;100423.63;8450483;27;20056;-72
2022/03/02 04:18:12;;;;;;;66.15;17.67;;;;;;;-5.08;69.92;100423.69;8449570;28;20047;-72
2022/03/02 04:22:12;;;;;;;69.38;17.67;;;;;;;-5.13;70.04;100410.25;8453275;28;20494;-71
2022/03/02 04:26:14;;;;;;;50.10;14.60;;;;;;;-5.19;70.18;100416.19;8441146;28;20063;-71
2022/03/02 04:30:15;;;;;;;52.13;15.52;;;;;;;-5.24;70.72;100402.75;8442806;28;20071;-71
2022/03/02 04:34:16;;;;;;;48.38;14.93;;;;;;;-5.27;70.41;100400.44;8468153;27;20047;-72
2022/03/02 04:38:17;;;;;;;44.05;14.25;;;;;;;-5.32;70.57;100400.16;8432111;28;20377;-71
2022/03/02 04:42:18;;;;;;;46.28;14.75;;;;;;;-5.37;71.06;100399.84;8446612;28;20461;-71
2022/03/02 04:46:18;;;;;;;41.47;14.85;;;;;;;-5.41;71.00;100388.03;8435464;28;20046;-71
2022/03/02 04:50:20;;;;;;;42.85;15.23;;;;;;;-5.43;71.37;100392.66;8434238;28;20086;-71
2022/03/02 04:59:03;;;;;;;44.45;15.45;;;;;;;-5.50;71.83;100378.56;8327056;28;20049;-72
2022/03/02 05:03:05;;;;;;;46.88;16.38;;;;;;;-5.54;72.11;100370.16;8360293;28;20077;-71
2022/03/02 05:07:06;;;;;;;46.38;15.25;;;;;;;-5.60;72.33;100382.22;8387450;28;20048;-72
2022/03/02 05:11:07;;;;;;;38.35;15.20;;;;;;;-5.63;72.33;100382.56;8392744;28;20040;-71
2022/03/02 05:15:10;;;;;;;42.83;16.17;;;;;;;-5.68;72.47;100384.91;8392669;28;20079;-72
2022/03/02 05:19:10;;;;;;;44.53;17.05;;;;;;;-5.71;72.53;100390.50;8392376;28;20070;-71
2022/03/02 05:23:12;;;;;;;46.15;15.82;;;;;;;-5.71;72.50;100390.50;8392004;28;20045;-71
2022/03/02 05:27:12;;;;;;;60.63;21.83;;;;;;;-5.73;72.46;100386.41;8391510;28;20041;-72
2022/03/02 05:31:13;;;;;;;82.43;27.05;;;;;;;-5.73;72.33;100387.22;8430282;28;20495;-72
2022/03/02 05:35:15;;;;;;;75.00;25.30;;;;;;;-5.71;72.46;100395.75;8429397;28;20077;-72
2022/03/02 05:39:16;;;;;;;55.08;19.73;;;;;;;-5.70;71.98;100386.88;8429281;28;20052;-72
2022/03/02 05:43:17;;;;;;;43.90;16.83;;;;;;;-5.70;72.23;100392.13;8444300;28;20043;-72
2022/03/02 05:47:18;;;;;;;39.78;16.15;;;;;;;-5.68;72.14;100387.53;8429092;28;20048;-71
2022/03/02 05:51:19;;;;;;;39.63;15.07;;;;;;;-5.62;72.15;100394.75;8431431;28;20126;-72
2022/03/02 05:55:20;;;;;;;40.85;14.10;;;;;;;-5.59;71.90;100378.59;8443078;28;20498;-71
2022/03/02 05:59:21;;;;;;;36.00;13.20;;;;;;;-5.54;71.76;100381.53;8462383;28;20122;-72
2022/03/02 06:03:22;;;;;;;45.10;15.10;;;;;;;-5.54;72.30;100397.31;8462046;28;20046;-73
2022/03/02 06:07:24;;;;;;;43.40;14.88;;;;;;;-5.49;72.19;100388.06;8462648;28;20047;-71
2022/03/02 06:11:25;;;;;;;44.17;14.70;;;;;;;-5.45;71.78;100384.13;8462415;28;20513;-71
2022/03/02 06:15:26;;;;;;;38.13;14.50;;;;;;;-5.40;71.75;100389.69;8461933;28;20040;-71
2022/03/02 06:19:28;;;;;;;34.22;14.13;;;;;;;-5.33;71.82;100387.97;8457568;28;20541;-71
2022/03/02 06:23:30;;;;;;;34.42;13.35;;;;;;;-5.26;71.79;100388.91;8440582;28;20051;-72
2022/03/02 06:27:33;;;;;;;43.95;13.30;;;;;;;-5.20;71.59;100383.78;8457967;28;20070;-72
2022/03/02 06:31:34;;;;;;;53.28;20.08;;;;;;;-5.10;71.57;100388.81;8440726;28;20158;-72
2022/03/02 06:35:35;;;;;;;32.75;14.75;;;;;;;-4.96;71.42;100385.38;8423550;28;20055;-72
2022/03/02 06:39:36;;;;;;;35.72;12.98;;;;;;;-4.84;71.30;100373.44;8457401;28;20604;-72
2022/03/02 06:43:42;;;;;;;37.25;14.90;;;;;;;-4.72;71.00;100374.66;8457313;28;20052;-72
2022/03/02 06:47:53;;;;;;;40.20;15.63;;;;;;;-4.60;70.58;100368.94;8440421;28;20048;-72
2022/03/02 06:51:57;;;;;;;56.92;20.15;;;;;;;-4.44;70.70;100374.06;8461172;28;20059;-71
2022/03/02 06:56:06;;;;;;;59.38;24.30;;;;;;;-4.22;70.47;100381.03;8441838;28;20050;-71
2022/03/02 07:00:14;;;;;;;53.95;18.83;;;;;;;-4.00;69.88;100377.50;8461479;28;20121;-72
2022/03/02 07:04:15;;;;;;;39.25;14.60;;;;;;;-3.76;69.39;100384.28;8462245;28;20530;-72
2022/03/02 07:08:17;;;;;;;36.80;13.38;;;;;;;-3.58;68.79;100375.94;8461019;28;20043;-72
2022/03/02 07:12:18;;;;;;;41.90;13.88;;;;;;;-3.40;68.35;100379.00;8461339;28;20047;-72
2022/03/02 07:16:22;;;;;;;31.25;12.25;;;;;;;-3.20;68.07;100366.81;8466490;28;20414;-71
2022/03/02 07:20:26;;;;;;;32.03;12.77;;;;;;;-2.99;67.75;100361.53;8466425;28;20108;-71
2022/03/02 07:24:30;;;;;;;24.85;10.13;;;;;;;-2.75;67.58;100372.69;8467743;27;20039;-71
2022/03/02 07:28:33;;;;;;;25.85;10.65;;;;;;;-2.58;67.05;100363.44;8466333;28;20047;-72
2022/03/02 07:32:36;;;;;;;75.22;24.00;;;;;;;-2.40;66.69;100362.97;8466918;28;20051;-71
2022/03/02 07:36:40;;;;;;;43.53;16.60;;;;;;;-2.23;66.11;100351.91;8467327;28;20082;-71
2022/03/02 07:40:41;;;;;;;57.33;19.88;;;;;;;-2.08;66.07;100356.22;8466811;28;20140;-72
2022/03/02 07:44:43;;;;;;;29.90;11.88;;;;;;;-1.83;65.49;100352.88;8466685;28;20097;-71
2022/03/02 07:48:44;;;;;;;34.00;11.95;;;;;;;-1.65;65.14;100365.59;8466688;28;20495;-71
2022/03/02 07:52:51;;;;;;;29.60;10.98;;;;;;;-1.51;64.40;100361.13;8466480;28;20051;-71
2022/03/02 07:56:52;;;;;;;29.98;12.00;;;;;;;-1.32;64.33;100347.91;8447383;28;20035;-71
2022/03/02 08:00:54;;;;;;;32.42;12.57;;;;;;;-0.98;63.03;100351.44;8436318;28;20036;-72
2022/03/02 08:04:56;;;;;;;33.42;11.90;;;;;;;-0.81;62.49;100342.06;8477579;27;20058;-73
2022/03/02 08:08:57;;;;;;;32.38;11.25;;;;;;;-0.69;61.89;100347.56;8449182;27;20058;-72
2022/03/02 08:12:58;;;;;;;31.25;11.10;;;;;;;-0.44;60.64;100352.03;8439239;28;20047;-71
2022/03/02 08:16:59;;;;;;;31.20;11.75;;;;;;;-0.40;60.13;100348.94;8444078;27;20549;-71
2022/03/02 08:21:02;;;;;;;31.02;11.93;;;;;;;-0.36;60.52;100344.84;8439227;27;20780;-71
2022/03/02 08:25:11;;;;;;;43.03;14.73;;;;;;;-0.28;59.68;100344.66;8452825;28;20052;-71
2022/03/02 08:29:12;;;;;;;36.30;12.60;;;;;;;-0.26;59.61;100345.22;8471272;27;20048;-71
2022/03/02 08:33:18;;;;;;;43.63;15.02;;;;;;;-0.12;59.37;100341.53;8431584;28;20071;-71
2022/03/02 08:37:20;;;;;;;32.83;12.13;;;;;;;0.03;59.32;100344.75;8431030;28;20048;-72
2022/03/02 08:41:20;;;;;;;32.85;11.10;;;;;;;0.20;58.85;100345.91;8430926;28;20044;-71
2022/03/02 08:45:22;;;;;;;39.85;14.18;;;;;;;0.26;58.47;100339.75;8412128;28;20131;-72
2022/03/02 08:49:22;;;;;;;29.88;11.15;;;;;;;0.43;58.36;100330.25;8464223;27;20113;-71
2022/03/02 08:53:25;;;;;;;34.83;14.88;;;;;;;0.64;57.52;100333.59;8452014;28;20051;-72
2022/03/02 08:57:26;;;;;;;106.07;28.25;;;;;;;0.84;57.17;100326.34;8463503;28;20064;-72
2022/03/02 09:01:27;;;;;;;56.40;16.80;;;;;;;1.02;56.39;100323.72;8440330;28;20040;-71
2022/03/02 09:05:28;;;;;;;35.47;11.75;;;;;;;1.12;54.46;100329.38;8453166;27;20494;-72
2022/03/02 09:09:30;;;;;;;29.42;10.10;;;;;;;1.14;54.89;100316.69;8464046;28;20055;-71
2022/03/02 09:13:31;;;;;;;32.33;12.93;;;;;;;1.24;54.57;100311.69;8444561;28;20491;-71
2022/03/02 09:17:32;;;;;;;40.20;14.35;;;;;;;1.39;55.17;100314.00;8463873;28;20100;-72
2022/03/02 09:21:34;;;;;;;37.20;13.23;;;;;;;1.47;54.55;100310.25;8463067;28;20055;-71
2022/03/02 09:25:38;;;;;;;36.67;13.57;;;;;;;1.49;54.25;100298.31;8463809;28;20047;-72
2022/03/02 09:29:42;;;;;;;33.60;13.40;;;;;;;1.68;54.14;100291.19;8463423;28;20116;-71
2022/03/02 09:33:54;;;;;;;33.28;13.32;;;;;;;1.79;53.67;100301.09;8464001;28;20048;-71
2022/03/02 09:37:56;;;;;;;39.47;13.68;;;;;;;1.96;54.15;100294.09;8461186;28;20048;-71
2022/03/02 09:42:00;;;;;;;42.28;14.90;;;;;;;2.08;53.52;100302.16;8461945;28;20054;-71
2022/03/02 09:46:06;;;;;;;32.10;13.73;;;;;;;2.13;52.66;100300.47;8462684;28;20064;-71
2022/03/02 09:50:10;;;;;;;39.10;12.75;;;;;;;2.21;52.88;100285.22;8460665;28;20089;-71
2022/03/02 09:54:11;;;;;;;30.23;12.50;;;;;;;2.24;51.85;100290.06;8462926;28;20043;-72
2022/03/02 09:58:14;;;;;;;27.20;12.52;;;;;;;2.27;51.97;100278.97;8492047;27;20046;-71
2022/03/02 10:02:29;;;;;;;33.55;13.25;;;;;;;2.36;50.72;100282.94;8492368;27;20209;-71
2022/03/02 10:06:31;;;;;;;39.90;14.35;;;;;;;2.49;51.30;100277.41;8491953;27;20469;-72
2022/03/02 10:10:39;;;;;;;35.38;14.55;;;;;;;2.65;50.63;100270.63;8407069;28;20492;-71
2022/03/02 10:14:41;;;;;;;;;;;;;;;2.73;49.36;100268.44;8456930;28;20050;-72
2022/03/02 10:18:42;;;;;;;40.85;14.05;;;;;;;2.90;48.53;100269.41;8458169;28;19954;-74
2022/03/02 10:22:50;;;;;;;35.85;13.63;;;;;;;2.94;47.92;100259.06;8441441;28;20085;-73
2022/03/02 10:26:56;;;;;;;36.77;13.87;;;;;;;2.93;48.48;100258.25;8455060;28;20426;-72
2022/03/02 10:31:15;;;;;;;38.70;14.43;;;;;;;3.12;48.48;100255.50;8427498;28;20047;-71
2022/03/02 10:35:21;;;;;;;32.63;14.30;;;;;;;3.13;48.52;100254.44;8429018;28;20429;-72
2022/03/02 10:39:42;;;;;;;37.92;15.68;;;;;;;3.17;48.11;100250.28;8428744;28;20047;-72
2022/03/02 10:44:15;;;;;;;44.25;16.05;;;;;;;3.14;48.02;100253.41;8429309;28;20488;-72
2022/03/02 10:48:31;;;;;;;35.70;13.02;;;;;;;3.20;47.39;100257.81;8408544;28;20047;-72
2022/03/02 10:52:36;;;;;;;39.03;14.82;;;;;;;3.28;48.45;100244.09;8431609;28;20215;-71
2022/03/02 10:56:39;;;;;;;33.00;14.18;;;;;;;3.57;48.21;100248.50;8431336;28;20504;-72
2022/03/02 11:00:40;;;;;;;38.53;15.02;;;;;;;3.62;47.05;100240.59;8431273;28;20044;-73
2022/03/02 11:04:44;;;;;;;35.58;14.75;;;;;;;3.78;48.43;100233.69;8430956;28;20443;-70
2022/03/02 11:08:46;;;;;;;35.20;14.48;;;;;;;3.99;47.18;100234.91;8429701;28;20055;-69
2022/03/02 11:12:49;;;;;;;38.53;15.10;;;;;;;4.03;46.58;100220.00;8431071;28;20173;-71
2022/03/02 11:16:50;;;;;;;33.03;13.98;;;;;;;3.96;47.20;100224.69;8430337;28;20126;-73
2022/03/02 11:21:06;;;;;;;37.92;14.38;;;;;;;3.97;46.97;100226.28;8362811;28;20107;-71
2022/03/02 11:25:07;;;;;;;39.08;14.65;;;;;;;4.05;45.71;100212.56;8413030;28;20140;-73
2022/03/02 11:29:11;;;;;;;34.03;14.77;;;;;;;4.14;46.91;100206.59;8430175;28;20055;-71
2022/03/02 11:33:12;;;;;;;32.45;13.90;;;;;;;4.25;46.56;100207.59;8430262;28;20109;-75
2022/03/02 11:37:14;;;;;;;37.42;15.45;;;;;;;4.37;46.31;100203.00;8430228;28;20067;-72
2022/03/02 11:41:15;;;;;;;31.10;14.27;;;;;;;4.49;46.92;100198.41;8430305;28;20090;-71
2022/03/02 11:45:16;;;;;;;36.72;14.20;;;;;;;4.48;46.03;100186.06;8413328;28;20418;-73
2022/03/02 11:49:17;;;;;;;39.70;14.68;;;;;;;4.59;46.19;100179.03;8409144;28;20050;-71
2022/03/02 11:53:28;;;;;;;32.17;14.95;;;;;;;4.75;46.18;100180.06;8454596;28;20047;-73
2022/03/02 11:57:31;;;;;;;37.28;15.48;;;;;;;4.91;45.97;100173.88;8467511;28;20135;-72
2022/03/02 12:01:44;;;;;;;33.78;14.48;;;;;;;5.05;44.53;100177.84;8466638;28;20410;-70
2022/03/02 12:05:45;;;;;;;34.67;14.20;;;;;;;4.91;45.10;100164.00;8464853;28;20533;-67
2022/03/02 12:09:47;;;;;;;37.58;14.65;;;;;;;5.04;45.42;100152.13;8440106;28;20522;-70
2022/03/02 12:14:02;;;;;;;37.63;15.18;;;;;;;5.10;44.28;100156.47;8458646;28;20491;-70
2022/03/02 12:18:10;;;;;;;34.67;13.55;;;;;;;5.23;44.61;100145.44;8466972;27;20483;-72
2022/03/02 12:22:13;;;;;;;35.63;13.70;;;;;;;5.25;43.39;100143.28;8464404;28;20052;-71
2022/03/02 12:26:14;;;;;;;34.47;14.32;;;;;;;5.31;43.41;100136.94;8466261;27;20112;-71
2022/03/02 12:30:15;;;;;;;33.35;13.00;;;;;;;5.10;43.54;100141.22;8466456;27;20422;-72
2022/03/02 12:34:16;;;;;;;37.40;15.05;;;;;;;5.33;44.01;100129.47;8499290;27;20082;-71
2022/03/02 12:38:18;;;;;;;46.38;16.65;;;;;;;5.41;43.11;100126.34;8466103;28;20134;-72
2022/03/02 12:42:19;;;;;;;38.28;15.15;;;;;;;5.50;43.46;100124.84;8466213;28;20051;-72
2022/03/02 12:46:20;;;;;;;33.30;14.93;;;;;;;5.56;42.72;100116.88;8465783;28;20147;-72
2022/03/02 12:50:22;;;;;;;31.42;14.13;;;;;;;5.57;42.52;100113.13;8465733;28;20055;-71
2022/03/02 12:54:26;;;;;;;34.75;13.73;;;;;;;5.48;41.14;100116.25;8464419;28;20079;-71
2022/03/02 12:58:27;;;;;;;34.80;15.07;;;;;;;5.43;41.88;100102.81;8465160;28;20051;-72
2022/03/02 13:02:35;;;;;;;28.80;13.82;;;;;;;5.61;42.06;100098.16;8461626;28;20491;-73
2022/03/02 13:06:38;;;;;;;36.67;14.45;;;;;;;5.72;41.00;100100.69;8497835;27;20428;-72
2022/03/02 13:10:44;;;;;;;29.60;12.50;;;;;;;5.63;40.19;100096.03;8496923;27;20048;-72
2022/03/02 13:14:45;;;;;;;34.40;13.23;;;;;;;5.59;40.72;100084.22;8464952;28;20115;-72
2022/03/02 13:18:47;;;;;;;34.50;14.27;;;;;;;5.65;40.88;100077.84;8464600;28;20043;-72
2022/03/02 13:22:48;;;;;;;35.40;15.75;;;;;;;5.45;40.31;100068.53;8464813;28;20147;-72
2022/03/02 13:27:05;;;;;;;33.38;13.80;;;;;;;5.99;39.97;100068.53;8463343;28;20051;-72
2022/03/02 13:31:12;;;;;;;41.40;14.88;;;;;;;7.24;39.89;100063.44;8464050;28;20047;-72
2022/03/02 13:35:13;;;;;;;40.38;13.88;;;;;;;8.47;39.43;100056.84;8462868;28;20057;-72
2022/03/02 13:39:22;;;;;;;30.27;13.10;;;;;;;9.32;35.52;100056.84;8464148;28;20097;-72
2022/03/02 13:43:23;;;;;;;30.13;13.75;;;;;;;10.40;34.09;100043.16;8443911;28;20047;-73
2022/03/02 13:47:27;;;;;;;30.25;15.00;;;;;;;11.41;34.28;100050.13;8462666;27;20165;-72
2022/03/02 13:51:48;;;;;;;33.08;15.57;;;;;;;12.15;32.30;100032.25;8462240;28;20051;-74
2022/03/02 13:56:12;;;;;;;35.63;15.68;;;;;;;12.27;32.07;100037.97;8462266;28;20572;-71
2022/03/02 14:00:18;;;;;;;32.42;14.98;;;;;;;12.79;30.61;100027.84;8463502;28;20131;-72
2022/03/02 14:04:21;;;;;;;31.33;15.80;;;;;;;13.67;30.27;100026.53;8463324;28;20054;-72
2022/03/02 14:08:22;;;;;;;33.72;15.52;;;;;;;14.15;29.64;100023.22;8463287;28;20050;-72
2022/03/02 14:12:24;;;;;;;30.63;15.57;;;;;;;14.51;26.89;100021.22;8495830;27;20052;-72
2022/03/02 14:16:25;;;;;;;33.45;16.08;;;;;;;14.35;27.09;100025.41;8461727;28;20058;-73
2022/03/02 14:20:32;;;;;;;34.17;16.73;;;;;;;13.90;28.30;100022.75;8463289;28;20082;-73
2022/03/02 14:24:35;;;;;;;30.70;15.70;;;;;;;14.37;28.04;100020.53;8461157;28;20101;-73
2022/03/02 14:28:41;;;;;;;31.25;15.70;;;;;;;14.09;28.31;100027.19;8462819;28;20143;-73
2022/03/02 14:32:44;;;;;;;31.48;16.42;;;;;;;13.99;27.35;100019.28;8462673;28;20131;-72
2022/03/02 14:36:45;;;;;;;31.27;16.65;;;;;;;14.01;27.19;100017.06;8462305;28;20054;-72
2022/03/02 14:40:46;;;;;;;33.53;15.85;;;;;;;14.16;28.33;100009.34;8462375;28;20134;-73
2022/03/02 14:45:04;;;;;;;32.45;16.38;;;;;;;14.33;28.02;100004.00;8462416;28;20071;-74
2022/03/02 14:49:06;;;;;;;34.72;17.48;;;;;;;14.19;27.59;100007.91;8462260;28;20595;-73
2022/03/02 14:53:08;;;;;;;32.47;17.05;;;;;;;13.68;27.93;100003.72;8461933;28;20052;-73
2022/03/02 14:57:09;;;;;;;31.35;16.70;;;;;;;13.33;27.83;99997.19;8462112;28;20491;-72
2022/03/02 15:01:13;;;;;;;37.90;19.92;;;;;;;13.44;26.92;99986.91;8495312;27;20044;-72
2022/03/02 15:05:14;;;;;;;36.30;18.50;;;;;;;13.28;27.35;99993.78;8476846;28;20105;-72
2022/03/02 15:09:16;;;;;;;38.53;18.90;;;;;;;12.28;28.14;99996.25;8459736;28;20051;-73
2022/03/02 15:17:45;;;;;;;38.15;17.98;;;;;;;9.53;32.21;99993.63;8475516;28;20487;-73
2022/03/02 15:21:47;;;;;;;46.47;20.63;;;;;;;8.67;33.06;99999.44;8461483;28;20048;-72
2022/03/02 15:25:48;;;;;;;44.08;19.65;;;;;;;7.92;34.27;99985.03;8461228;28;20487;-73
2022/03/02 15:29:50;;;;;;;44.22;19.50;;;;;;;7.49;34.90;99990.94;8461564;28;20044;-73
2022/03/02 15:33:51;;;;;;;42.72;19.83;;;;;;;6.99;35.62;99987.03;8495579;27;20060;-71
2022/03/02 15:37:56;;;;;;;44.35;20.27;;;;;;;6.79;36.07;99992.34;8467703;28;20179;-70
2022/03/02 15:41:58;;;;;;;47.47;21.25;;;;;;;6.33;37.07;99984.06;8467532;28;20661;-69
2022/03/02 15:45:58;;;;;;;44.08;20.65;;;;;;;6.15;37.60;99984.47;8458227;28;20108;-70
2022/03/02 15:50:01;;;;;;;48.58;21.00;;;;;;;5.92;38.23;99976.81;8425123;28;20476;-69
2022/03/02 15:54:12;;;;;;;50.65;21.08;;;;;;;5.80;38.39;99981.50;8438239;28;20138;-69
2022/03/02 15:58:21;;;;;;;47.65;20.73;;;;;;;5.43;39.43;99979.59;8441135;28;20060;-70
2022/03/02 16:02:30;;;;;;;50.95;20.73;;;;;;;5.13;40.06;99973.13;8433957;28;20090;-69
2022/03/02 16:06:31;;;;;;;49.30;22.83;;;;;;;4.91;40.40;99965.13;8449804;27;20065;-69
2022/03/02 16:10:32;;;;;;;46.58;21.08;;;;;;;4.62;41.08;99962.63;8437576;28;20499;-73
2022/03/02 16:14:52;;;;;;;49.25;21.58;;;;;;;4.42;41.45;99962.38;8440145;28;20381;-73
2022/03/02 16:19:06;;;;;;;47.70;20.38;;;;;;;4.10;42.15;99964.06;8433855;28;20048;-72
2022/03/02 16:23:20;;;;;;;45.28;19.30;;;;;;;3.81;42.84;99961.47;8442148;28;20048;-73
2022/03/02 16:27:23;;;;;;;44.20;20.23;;;;;;;3.59;43.28;99952.59;8433110;28;20056;-70
2022/03/02 16:31:25;;;;;;;46.17;19.52;;;;;;;3.25;44.08;99950.94;8432340;28;20561;-70
2022/03/02 16:35:26;;;;;;;46.42;20.15;;;;;;;3.01;44.81;99949.44;8438910;28;20426;-69
2022/03/02 16:39:27;;;;;;;48.30;19.77;;;;;;;2.75;45.15;99954.25;8394865;28;20048;-69
2022/03/02 16:43:28;;;;;;;48.30;19.50;;;;;;;2.60;45.73;99964.63;8433579;28;20541;-71
2022/03/02 16:47:30;;;;;;;43.40;20.08;;;;;;;2.35;46.53;99956.09;8432407;28;20487;-70
2022/03/02 16:51:31;;;;;;;57.83;21.33;;;;;;;2.15;47.00;99961.00;8436172;28;20040;-69
2022/03/02 16:55:32;;;;;;;61.33;23.45;;;;;;;1.91;47.29;99966.31;8445336;27;20056;-70
2022/03/02 16:59:35;;;;;;;57.08;22.40;;;;;;;1.77;48.06;99959.59;8478702;27;20134;-71
2022/03/02 17:03:36;;;;;;;78.15;29.33;;;;;;;1.63;48.65;99963.53;8468669;27;20101;-71
2022/03/02 17:07:38;;;;;;;97.25;32.88;;;;;;;1.32;49.11;99956.66;8465230;27;20396;-72
2022/03/02 17:11:39;;;;;;;117.50;37.42;;;;;;;1.16;49.46;99963.41;8465047;28;20050;-72
2022/03/02 17:15:40;;;;;;;109.72;39.22;;;;;;;1.10;50.04;99960.84;8475020;27;20078;-70
2022/03/02 17:19:41;;;;;;;101.13;35.72;;;;;;;0.89;51.09;99951.53;8470534;27;20126;-70
2022/03/02 17:23:42;;;;;;;91.22;32.20;;;;;;;0.71;51.53;99949.69;8491103;27;20418;-72
2022/03/02 17:27:43;;;;;;;78.55;27.33;;;;;;;0.56;51.94;99940.50;8498237;27;20055;-72
2022/03/02 17:31:44;;;;;;;60.92;24.30;;;;;;;0.38;52.89;99939.47;8478868;27;20073;-72
2022/03/02 17:35:45;;;;;;;47.58;20.80;;;;;;;0.24;53.76;99932.69;8469522;27;20051;-72
2022/03/02 17:39:46;;;;;;;51.20;21.52;;;;;;;0.10;53.97;99936.53;8457153;27;20067;-72
2022/03/02 17:43:48;;;;;;;52.70;22.35;;;;;;;0.02;53.88;99939.44;8422931;28;20059;-71
2022/03/02 17:47:50;;;;;;;49.33;22.02;;;;;;;-0.05;54.00;99938.69;8465897;27;20052;-72
2022/03/02 17:51:51;;;;;;;47.95;20.77;;;;;;;-0.15;54.53;99949.00;8460293;27;20048;-72
2022/03/02 17:55:54;;;;;;;56.08;20.42;;;;;;;-0.23;54.39;99954.59;8430296;28;20056;-71
2022/03/02 17:59:55;;;;;;;57.55;22.23;;;;;;;-0.29;55.19;99942.19;8453390;27;20070;-73
2022/03/02 18:03:57;;;;;;;55.75;22.38;;;;;;;-0.32;55.02;99947.97;8439875;28;20075;-71
2022/03/02 18:07:58;;;;;;;64.93;25.27;;;;;;;-0.42;56.02;99943.94;8463554;27;20052;-71
2022/03/02 18:12:02;;;;;;;72.53;27.48;;;;;;;-0.49;56.42;99937.88;8452081;28;20061;-71
2022/03/02 18:16:04;;;;;;;77.50;30.05;;;;;;;-0.60;57.09;99949.19;8460642;28;20058;-72
2022/03/02 18:20:06;;;;;;;88.25;31.30;;;;;;;-0.71;57.39;99933.97;8458787;28;20440;-70
2022/03/02 18:24:08;;;;;;;77.15;28.00;;;;;;;-0.72;57.51;99937.63;8470844;27;20510;-70
2022/03/02 18:28:09;;;;;;;88.75;30.85;;;;;;;-0.76;57.44;99925.84;8461427;28;20071;-72
2022/03/02 18:32:10;;;;;;;105.90;34.80;;;;;;;-0.82;57.87;99921.38;8429990;28;20503;-71
2022/03/02 18:36:11;;;;;;;89.38;31.25;;;;;;;-0.87;58.02;99923.88;8427453;28;20060;-72
2022/03/02 18:40:13;;;;;;;71.32;27.13;;;;;;;-0.91;57.87;99922.69;8426751;28;20052;-71